createdAt,value
2017-11-21T00:00:45.462Z,4.3
2017-11-21T00:01:45.741Z,4.3
2017-11-21T00:02:45.426Z,4.3
2017-11-21T00:03:45.951Z,4.3
2017-11-21T00:04:46.210Z,4.3
2017-11-21T00:05:45.437Z,4.3
2017-11-21T00:06:45.400Z,4.3
2017-11-21T00:07:45.408Z,4.3
2017-11-21T00:08:45.756Z,4.3
2017-11-21T00:09:46.423Z,4.3
2017-11-21T00:10:45.342Z,4.3
2017-11-21T00:11:45.989Z,4.3
2017-11-21T00:12:45.911Z,4.3
2017-11-21T00:13:46.571Z,4.3
2017-11-21T00:14:46.131Z,4.3
2017-11-21T00:15:45.457Z,4.3
2017-11-21T00:16:46.160Z,4.3
2017-11-21T00:17:46.136Z,4.3
2017-11-21T00:18:45.383Z,4.3
2017-11-21T00:19:45.416Z,4.3
2017-11-21T00:20:45.715Z,4.3
2017-11-21T00:21:45.765Z,4.3
2017-11-21T00:22:45.460Z,4.4
2017-11-21T00:23:45.386Z,4.4
2017-11-21T00:24:45.504Z,4.4
2017-11-21T00:25:45.586Z,4.4
2017-11-21T00:26:46.635Z,4.4
2017-11-21T00:27:45.497Z,4.5
2017-11-21T00:28:45.217Z,4.5
2017-11-21T00:29:45.714Z,4.6
2017-11-21T00:30:45.789Z,4.6
2017-11-21T00:31:45.483Z,4.6
2017-11-21T00:32:45.299Z,4.6
2017-11-21T00:33:45.445Z,4.6
2017-11-21T00:34:45.442Z,4.6
2017-11-21T00:35:45.204Z,4.6
2017-11-21T00:36:46.891Z,4.6
2017-11-21T00:37:45.678Z,4.7
2017-11-21T00:38:45.438Z,4.7
2017-11-21T00:39:46.640Z,4.7
2017-11-21T00:40:45.520Z,4.7
2017-11-21T00:41:47.302Z,4.7
2017-11-21T00:42:45.518Z,4.7
2017-11-21T00:43:45.788Z,4.7
2017-11-21T00:44:46.325Z,4.7
2017-11-21T00:45:45.498Z,4.8
2017-11-21T00:46:45.603Z,4.8
2017-11-21T00:47:45.319Z,4.8
2017-11-21T00:48:45.531Z,4.8
2017-11-21T00:49:45.499Z,4.8
2017-11-21T00:50:45.333Z,4.8
2017-11-21T00:51:45.510Z,4.8
2017-11-21T00:52:45.859Z,4.8
2017-11-21T00:53:45.486Z,4.8
2017-11-21T00:54:45.490Z,4.8
2017-11-21T00:55:57.304Z,4.9
2017-11-21T00:56:45.507Z,4.9
2017-11-21T00:57:45.707Z,5.1
2017-11-21T00:58:45.459Z,5.1
2017-11-21T00:59:45.544Z,5.1
2017-11-21T01:00:45.486Z,5.1
2017-11-21T01:01:45.818Z,5.1
2017-11-21T01:02:45.862Z,5.1
2017-11-21T01:03:45.353Z,5.1
2017-11-21T01:04:45.564Z,5.1
2017-11-21T01:05:45.336Z,5.2
2017-11-21T01:06:45.394Z,5.2
2017-11-21T01:07:45.609Z,5.2
2017-11-21T01:08:45.959Z,5.2
2017-11-21T01:09:45.329Z,5.2
2017-11-21T01:10:45.548Z,5.2
2017-11-21T01:11:45.309Z,5.2
2017-11-21T01:12:45.511Z,5.2
2017-11-21T01:13:45.337Z,5.2
2017-11-21T01:14:45.605Z,5.2
2017-11-21T01:15:46.081Z,5.2
2017-11-21T01:16:45.936Z,5.2
2017-11-21T01:17:45.552Z,5.2
2017-11-21T01:18:45.581Z,5.3
2017-11-21T01:19:45.292Z,5.3
2017-11-21T01:20:45.589Z,5.3
2017-11-21T01:21:48.010Z,5.3
2017-11-21T01:22:45.922Z,5.3
2017-11-21T01:23:45.933Z,5.3
2017-11-21T01:24:45.533Z,5.3
2017-11-21T01:25:45.439Z,5.3
2017-11-21T01:26:45.377Z,5.3
2017-11-21T01:27:46.165Z,5.3
2017-11-21T01:28:45.354Z,5.3
2017-11-21T01:29:45.595Z,5.3
2017-11-21T01:30:45.346Z,5.3
2017-11-21T01:31:45.344Z,5.3
2017-11-21T01:32:45.526Z,5.3
2017-11-21T01:33:45.872Z,5.3
2017-11-21T01:34:46.267Z,5.3
2017-11-21T01:35:46.155Z,5.3
2017-11-21T01:36:45.435Z,5.4
2017-11-21T01:37:45.667Z,5.4
2017-11-21T01:38:45.587Z,5.4
2017-11-21T01:39:45.579Z,5.4
2017-11-21T01:40:45.671Z,5.4
2017-11-21T01:41:45.578Z,5.4
2017-11-21T01:42:45.566Z,5.4
2017-11-21T01:43:45.752Z,5.4
2017-11-21T01:44:45.518Z,5.4
2017-11-21T01:45:45.622Z,5.4
2017-11-21T01:46:45.656Z,5.4
2017-11-21T01:47:45.930Z,5.4
2017-11-21T01:48:45.666Z,5.4
2017-11-21T01:49:46.525Z,5.4
2017-11-21T01:50:45.619Z,5.4
2017-11-21T01:51:45.550Z,5.3
2017-11-21T01:52:45.631Z,5.3
2017-11-21T01:53:45.842Z,5.4
2017-11-21T01:54:45.723Z,5.4
2017-11-21T01:55:45.386Z,5.4
2017-11-21T01:56:45.563Z,5.4
2017-11-21T01:57:45.549Z,5.4
2017-11-21T01:58:45.401Z,5.4
2017-11-21T01:59:45.609Z,5.4
2017-11-21T02:00:45.657Z,5.4
2017-11-21T02:01:45.569Z,5.4
2017-11-21T02:02:45.603Z,5.4
2017-11-21T02:03:45.440Z,5.4
2017-11-21T02:04:45.580Z,5.4
2017-11-21T02:05:45.593Z,5.4
2017-11-21T02:06:45.941Z,5.4
2017-11-21T02:07:46.269Z,5.4
2017-11-21T02:08:45.680Z,5.4
2017-11-21T02:09:45.603Z,5.4
2017-11-21T02:10:46.333Z,5.4
2017-11-21T02:11:45.677Z,5.4
2017-11-21T02:12:45.684Z,5.4
2017-11-21T02:13:46.081Z,5.4
2017-11-21T02:14:45.629Z,5.4
2017-11-21T02:15:45.603Z,5.4
2017-11-21T02:16:45.665Z,5.4
2017-11-21T02:17:45.922Z,5.4
2017-11-21T02:18:45.680Z,5.4
2017-11-21T02:19:45.512Z,5.5
2017-11-21T02:20:45.441Z,5.5
2017-11-21T02:21:45.491Z,5.5
2017-11-21T02:22:45.639Z,5.5
2017-11-21T02:23:45.443Z,5.5
2017-11-21T02:24:45.669Z,5.5
2017-11-21T02:25:46.166Z,5.5
2017-11-21T02:26:45.922Z,5.5
2017-11-21T02:27:46.838Z,5.5
2017-11-21T02:28:45.710Z,5.5
2017-11-21T02:29:45.739Z,5.5
2017-11-21T02:30:45.973Z,5.5
2017-11-21T02:31:45.497Z,5.6
2017-11-21T02:32:45.475Z,5.6
2017-11-21T02:33:45.509Z,5.6
2017-11-21T02:34:45.556Z,5.6
2017-11-21T02:36:02.438Z,5.6
2017-11-21T02:36:45.702Z,5.6
2017-11-21T02:37:45.528Z,5.6
2017-11-21T02:38:45.700Z,5.6
2017-11-21T02:39:45.663Z,5.6
2017-11-21T02:40:45.966Z,5.6
2017-11-21T02:41:45.973Z,5.6
2017-11-21T02:42:45.602Z,5.6
2017-11-21T02:43:45.733Z,5.6
2017-11-21T02:44:45.512Z,5.6
2017-11-21T02:45:45.726Z,5.6
2017-11-21T02:46:45.747Z,5.6
2017-11-21T02:47:45.710Z,5.7
2017-11-21T02:48:45.918Z,5.7
2017-11-21T02:49:45.998Z,5.7
2017-11-21T02:50:45.507Z,5.7
2017-11-21T02:51:45.957Z,5.7
2017-11-21T02:52:45.721Z,5.7
2017-11-21T02:53:45.556Z,5.7
2017-11-21T02:54:45.745Z,5.7
2017-11-21T02:55:46.688Z,5.7
2017-11-21T02:56:45.629Z,5.7
2017-11-21T02:57:45.572Z,5.8
2017-11-21T02:58:45.980Z,5.8
2017-11-21T02:59:45.713Z,5.8
2017-11-21T03:00:45.591Z,5.8
2017-11-21T03:01:45.739Z,5.8
2017-11-21T03:02:46.027Z,5.8
2017-11-21T03:03:45.473Z,5.8
2017-11-21T03:04:45.756Z,5.8
2017-11-21T03:05:46.363Z,5.8
2017-11-21T03:06:45.756Z,5.8
2017-11-21T03:07:45.783Z,5.9
2017-11-21T03:08:45.709Z,5.9
2017-11-21T03:09:45.816Z,5.9
2017-11-21T03:10:46.037Z,5.9
2017-11-21T03:11:45.531Z,5.9
2017-11-21T03:12:45.978Z,5.9
2017-11-21T03:13:45.684Z,5.9
2017-11-21T03:14:46.976Z,5.9
2017-11-21T03:15:45.796Z,5.9
2017-11-21T03:16:45.510Z,5.9
2017-11-21T03:17:46.058Z,6.0
2017-11-21T03:18:45.499Z,6.0
2017-11-21T03:19:45.759Z,6.0
2017-11-21T03:20:45.518Z,6.0
2017-11-21T03:21:45.759Z,6.0
2017-11-21T03:22:46.117Z,6.0
2017-11-21T03:23:45.744Z,6.0
2017-11-21T03:24:45.717Z,6.0
2017-11-21T03:25:45.829Z,6.0
2017-11-21T03:26:45.762Z,6.0
2017-11-21T03:27:45.711Z,6.0
2017-11-21T03:28:46.038Z,6.0
2017-11-21T03:29:46.015Z,6.0
2017-11-21T03:30:45.737Z,6.0
2017-11-21T03:31:45.565Z,6.0
2017-11-21T03:33:54.485Z,6.0
2017-11-21T03:34:21.668Z,6.0
2017-11-21T03:35:22.916Z,6.0
2017-11-21T03:36:22.691Z,6.0
2017-11-21T03:37:23.068Z,6.0
2017-11-21T03:38:23.054Z,6.0
2017-11-21T03:39:22.884Z,6.0
2017-11-21T03:40:22.812Z,6.0
2017-11-21T03:41:23.130Z,6.0
2017-11-21T03:42:22.900Z,6.0
2017-11-21T03:44:36.368Z,6.0
2017-11-21T03:45:35.703Z,6.0
2017-11-21T03:46:36.561Z,6.0
2017-11-21T03:47:35.697Z,6.0
2017-11-21T03:48:36.205Z,6.0
2017-11-21T03:49:35.964Z,6.0
2017-11-21T03:50:35.725Z,6.0
2017-11-21T03:51:35.646Z,6.0
2017-11-21T03:52:35.760Z,6.0
2017-11-21T03:53:35.645Z,6.0
2017-11-21T03:54:55.712Z,6.0
2017-11-21T03:55:35.705Z,6.0
2017-11-21T03:56:36.405Z,6.0
2017-11-21T03:57:35.698Z,6.0
2017-11-21T03:58:35.707Z,5.9
2017-11-21T03:59:35.806Z,5.9
2017-11-21T04:00:35.709Z,5.9
2017-11-21T04:01:35.442Z,5.9
2017-11-21T04:02:35.738Z,5.9
2017-11-21T04:03:35.940Z,5.9
2017-11-21T04:04:36.588Z,5.9
2017-11-21T04:05:35.752Z,5.9
2017-11-21T04:06:36.167Z,5.9
2017-11-21T04:07:35.436Z,5.9
2017-11-21T04:08:36.242Z,5.9
2017-11-21T04:09:35.719Z,5.9
2017-11-21T04:10:36.115Z,5.9
2017-11-21T04:11:35.684Z,5.9
2017-11-21T04:12:36.657Z,5.9
2017-11-21T04:13:35.762Z,5.9
2017-11-21T04:14:37.802Z,5.9
2017-11-21T04:15:35.703Z,5.9
2017-11-21T04:16:35.529Z,5.9
2017-11-21T04:17:35.547Z,5.9
2017-11-21T04:18:35.929Z,5.9
2017-11-21T04:19:35.778Z,5.9
2017-11-21T04:20:35.800Z,5.9
2017-11-21T04:21:35.499Z,5.8
2017-11-21T04:22:36.049Z,5.8
2017-11-21T04:23:35.743Z,5.8
2017-11-21T04:24:36.255Z,5.8
2017-11-21T04:25:35.760Z,5.8
2017-11-21T04:26:35.542Z,5.8
2017-11-21T04:27:35.709Z,5.8
2017-11-21T04:28:35.739Z,5.8
2017-11-21T04:29:35.721Z,5.8
2017-11-21T04:30:36.268Z,5.8
2017-11-21T04:31:35.566Z,5.8
2017-11-21T04:32:37.027Z,5.8
2017-11-21T04:33:36.186Z,5.8
2017-11-21T04:36:16.413Z,5.8
2017-11-21T04:37:16.809Z,5.8
2017-11-21T04:38:17.459Z,5.8
2017-11-21T04:39:16.809Z,5.7
2017-11-21T04:40:16.544Z,5.7
2017-11-21T04:41:16.903Z,5.7
2017-11-21T04:42:16.659Z,5.6
2017-11-21T04:43:16.687Z,5.6
2017-11-21T04:44:16.823Z,5.6
2017-11-21T04:45:16.875Z,5.6
2017-11-21T04:46:18.663Z,5.6
2017-11-21T04:47:17.106Z,5.6
2017-11-21T04:48:17.048Z,5.6
2017-11-21T04:49:17.099Z,5.6
2017-11-21T04:50:16.821Z,5.6
2017-11-21T04:51:16.721Z,5.6
2017-11-21T04:52:16.872Z,5.5
2017-11-21T04:53:16.828Z,5.5
2017-11-21T04:54:16.884Z,5.5
2017-11-21T04:55:16.856Z,5.5
2017-11-21T04:56:16.697Z,5.5
2017-11-21T04:57:16.877Z,5.5
2017-11-21T04:58:17.105Z,5.5
2017-11-21T04:59:16.719Z,5.5
2017-11-21T05:00:16.654Z,5.5
2017-11-21T05:01:16.633Z,5.5
2017-11-21T05:02:17.226Z,5.5
2017-11-21T05:03:16.928Z,5.5
2017-11-21T05:04:16.890Z,5.5
2017-11-21T05:05:16.730Z,5.5
2017-11-21T05:06:16.898Z,5.5
2017-11-21T05:07:16.711Z,5.4
2017-11-21T05:08:17.124Z,5.4
2017-11-21T05:09:16.923Z,5.4
2017-11-21T05:10:17.166Z,5.4
2017-11-21T05:11:16.928Z,5.4
2017-11-21T05:12:16.648Z,5.4
2017-11-21T05:13:17.019Z,5.4
2017-11-21T05:14:16.842Z,5.4
2017-11-21T05:15:17.186Z,5.4
2017-11-21T05:16:16.872Z,5.4
2017-11-21T05:17:16.896Z,5.5
2017-11-21T05:18:17.192Z,5.5
2017-11-21T05:19:16.884Z,5.5
2017-11-21T05:20:17.336Z,5.4
2017-11-21T05:21:16.910Z,5.4
2017-11-21T05:22:16.940Z,5.4
2017-11-21T05:23:16.901Z,5.4
2017-11-21T05:24:16.897Z,5.4
2017-11-21T05:25:16.859Z,5.4
2017-11-21T05:26:17.187Z,5.4
2017-11-21T05:27:16.893Z,5.4
2017-11-21T05:28:16.890Z,5.4
2017-11-21T05:29:16.937Z,5.4
2017-11-21T05:30:31.657Z,5.4
2017-11-21T05:31:16.775Z,5.4
2017-11-21T05:32:16.920Z,5.4
2017-11-21T05:33:16.926Z,5.4
2017-11-21T05:34:16.907Z,5.4
2017-11-21T05:35:17.805Z,5.4
2017-11-21T05:36:16.717Z,5.4
2017-11-21T05:37:16.911Z,5.4
2017-11-21T05:38:16.974Z,5.4
2017-11-21T05:39:16.941Z,5.4
2017-11-21T05:40:17.558Z,5.4
2017-11-21T05:41:16.764Z,5.4
2017-11-21T05:42:16.713Z,5.4
2017-11-21T05:43:16.914Z,5.4
2017-11-21T05:44:16.926Z,5.4
2017-11-21T05:45:16.958Z,5.4
2017-11-21T05:46:16.956Z,5.4
2017-11-21T05:47:17.250Z,5.4
2017-11-21T05:48:17.247Z,5.4
2017-11-21T05:49:17.897Z,5.4
2017-11-21T05:51:57.938Z,5.4
2017-11-21T05:52:26.258Z,5.4
2017-11-21T05:53:26.192Z,5.4
2017-11-21T05:54:26.285Z,5.4
2017-11-21T05:55:26.082Z,5.4
2017-11-21T05:56:26.030Z,5.4
2017-11-21T05:57:26.178Z,5.4
2017-11-21T05:58:26.579Z,5.4
2017-11-21T05:59:26.121Z,5.4
2017-11-21T06:00:26.108Z,5.4
2017-11-21T06:01:26.659Z,5.4
2017-11-21T06:02:26.721Z,5.4
2017-11-21T06:03:26.091Z,5.4
2017-11-21T06:04:26.558Z,5.4
2017-11-21T06:05:26.605Z,5.4
2017-11-21T06:06:26.300Z,5.4
2017-11-21T06:07:26.979Z,5.4
2017-11-21T06:08:26.617Z,5.4
2017-11-21T06:09:29.022Z,5.4
2017-11-21T06:10:26.184Z,5.4
2017-11-21T06:11:26.302Z,5.4
2017-11-21T06:12:26.489Z,5.4
2017-11-21T06:13:26.149Z,5.4
2017-11-21T06:14:26.348Z,5.4
2017-11-21T06:15:26.343Z,5.5
2017-11-21T06:16:26.229Z,5.5
2017-11-21T06:17:26.602Z,5.5
2017-11-21T06:18:26.557Z,5.5
2017-11-21T06:20:18.889Z,5.5
2017-11-21T06:20:29.409Z,5.5
2017-11-21T06:21:29.252Z,5.5
2017-11-21T06:22:29.225Z,5.5
2017-11-21T06:23:29.459Z,5.5
2017-11-21T06:24:28.888Z,5.5
2017-11-21T06:25:29.017Z,5.5
2017-11-21T06:26:29.436Z,5.6
2017-11-21T06:27:29.199Z,5.6
2017-11-21T06:28:29.181Z,5.6
2017-11-21T06:29:29.304Z,5.6
2017-11-21T06:30:29.514Z,5.6
2017-11-21T06:31:29.273Z,5.6
2017-11-21T06:32:29.539Z,5.6
2017-11-21T06:33:29.071Z,5.6
2017-11-21T06:34:29.014Z,5.6
2017-11-21T06:35:29.047Z,5.6
2017-11-21T06:36:29.163Z,5.6
2017-11-21T06:37:29.178Z,5.6
2017-11-21T06:38:29.265Z,5.6
2017-11-21T06:39:29.762Z,5.6
2017-11-21T06:40:48.557Z,5.6
2017-11-21T06:41:29.722Z,5.7
2017-11-21T06:42:28.864Z,5.7
2017-11-21T06:43:30.103Z,5.7
2017-11-21T06:44:30.553Z,5.7
2017-11-21T06:45:29.292Z,5.7
2017-11-21T06:46:29.024Z,5.8
2017-11-21T06:47:29.178Z,5.8
2017-11-21T06:48:29.412Z,5.8
2017-11-21T06:49:29.529Z,5.8
2017-11-21T06:50:28.985Z,5.8
2017-11-21T06:51:29.145Z,5.8
2017-11-21T06:52:29.173Z,5.8
2017-11-21T06:53:29.223Z,5.8
2017-11-21T06:54:29.164Z,5.8
2017-11-21T06:55:28.986Z,5.8
2017-11-21T06:56:29.207Z,5.7
2017-11-21T06:57:29.171Z,5.7
2017-11-21T06:58:30.203Z,5.7
2017-11-21T06:59:30.166Z,5.7
2017-11-21T07:00:29.184Z,5.7
2017-11-21T07:01:29.447Z,5.8
2017-11-21T07:02:29.458Z,5.8
2017-11-21T07:03:29.167Z,5.8
2017-11-21T07:04:29.503Z,5.8
2017-11-21T07:05:29.219Z,5.8
2017-11-21T07:06:29.469Z,5.8
2017-11-21T07:07:29.006Z,5.8
2017-11-21T07:08:29.887Z,5.8
2017-11-21T07:09:29.135Z,5.9
2017-11-21T07:10:29.469Z,5.9
2017-11-21T07:11:28.959Z,5.8
2017-11-21T07:12:28.945Z,5.8
2017-11-21T07:13:28.999Z,5.8
2017-11-21T07:14:30.249Z,5.8
2017-11-21T07:15:30.218Z,5.8
2017-11-21T07:16:29.159Z,5.8
2017-11-21T07:17:29.156Z,5.8
2017-11-21T07:18:31.052Z,5.8
2017-11-21T07:19:29.175Z,5.8
2017-11-21T07:20:29.140Z,5.8
2017-11-21T07:21:31.203Z,5.9
2017-11-21T07:22:29.905Z,5.9
2017-11-21T07:23:32.266Z,5.9
2017-11-21T07:24:29.921Z,5.8
2017-11-21T07:25:34.266Z,5.8
2017-11-21T07:26:32.958Z,5.8
2017-11-21T07:27:35.951Z,5.8
2017-11-21T07:28:44.105Z,5.8
2017-11-21T07:29:29.075Z,5.9
2017-11-21T07:30:29.863Z,5.9
2017-11-21T07:31:33.386Z,5.9
2017-11-21T07:32:42.569Z,5.8
2017-11-21T07:33:38.878Z,5.8
2017-11-21T07:35:05.191Z,5.9
2017-11-21T07:35:54.732Z,5.9
2017-11-21T07:36:36.308Z,5.9
2017-11-21T07:37:29.036Z,5.9
2017-11-21T07:38:30.300Z,5.9
2017-11-21T07:39:29.505Z,5.9
2017-11-21T07:40:29.186Z,5.9
2017-11-21T07:41:29.721Z,5.9
2017-11-21T07:42:29.509Z,5.9
2017-11-21T07:43:29.476Z,5.9
2017-11-21T07:44:30.043Z,5.9
2017-11-21T07:45:29.415Z,5.9
2017-11-21T07:46:29.670Z,5.9
2017-11-21T07:47:29.716Z,5.9
2017-11-21T07:48:29.194Z,5.9
2017-11-21T07:49:29.494Z,5.9
2017-11-21T07:50:29.217Z,5.9
2017-11-21T07:51:30.076Z,5.9
2017-11-21T07:52:29.488Z,5.9
2017-11-21T07:53:29.743Z,5.9
2017-11-21T07:54:29.324Z,5.9
2017-11-21T07:55:29.832Z,5.9
2017-11-21T07:56:29.205Z,5.9
2017-11-21T07:57:29.318Z,6.0
2017-11-21T07:58:48.294Z,6.0
2017-11-21T07:59:29.683Z,6.0
2017-11-21T08:00:29.641Z,6.0
2017-11-21T08:01:29.195Z,6.0
2017-11-21T08:02:29.350Z,6.0
2017-11-21T08:03:29.517Z,6.0
2017-11-21T08:04:29.433Z,6.0
2017-11-21T08:05:29.686Z,6.0
2017-11-21T08:06:29.457Z,6.0
2017-11-21T08:07:30.350Z,6.0
2017-11-21T08:08:29.974Z,6.0
2017-11-21T08:09:29.438Z,6.0
2017-11-21T08:10:29.383Z,6.0
2017-11-21T08:11:29.408Z,6.0
2017-11-21T08:12:29.432Z,6.0
2017-11-21T08:13:29.196Z,6.0
2017-11-21T08:14:32.672Z,6.0
2017-11-21T08:15:29.963Z,6.0
2017-11-21T08:16:30.876Z,6.0
2017-11-21T08:17:29.514Z,6.0
2017-11-21T08:18:29.588Z,6.0
2017-11-21T08:19:29.396Z,6.0
2017-11-21T08:20:29.434Z,6.0
2017-11-21T08:21:29.209Z,6.0
2017-11-21T08:22:30.593Z,6.0
2017-11-21T08:23:29.487Z,6.1
2017-11-21T08:24:29.246Z,6.1
2017-11-21T08:25:29.478Z,6.1
2017-11-21T08:26:29.773Z,6.1
2017-11-21T08:27:29.739Z,6.1
2017-11-21T08:28:31.510Z,6.2
2017-11-21T08:29:29.441Z,6.2
2017-11-21T08:30:29.334Z,6.1
2017-11-21T08:31:30.227Z,6.1
2017-11-21T08:32:29.148Z,6.1
2017-11-21T08:33:29.139Z,6.2
2017-11-21T08:34:29.311Z,6.2
2017-11-21T08:35:29.126Z,6.2
2017-11-21T08:36:29.262Z,6.2
2017-11-21T08:37:29.104Z,6.2
2017-11-21T08:38:29.338Z,6.2
2017-11-21T08:39:29.117Z,6.2
2017-11-21T08:40:29.509Z,6.3
2017-11-21T08:41:29.339Z,6.3
2017-11-21T08:42:29.371Z,6.3
2017-11-21T08:43:29.311Z,6.3
2017-11-21T08:44:29.592Z,6.3
2017-11-21T08:45:29.838Z,6.3
2017-11-21T08:46:29.434Z,6.3
2017-11-21T08:47:32.235Z,6.3
2017-11-21T08:48:33.830Z,6.4
2017-11-21T08:49:29.220Z,6.4
2017-11-21T08:50:29.715Z,6.4
2017-11-21T08:51:29.366Z,6.4
2017-11-21T08:52:29.388Z,6.4
2017-11-21T08:53:46.800Z,6.4
2017-11-21T08:54:29.659Z,6.4
2017-11-21T08:55:30.635Z,6.4
2017-11-21T08:56:29.442Z,6.4
2017-11-21T08:57:29.694Z,6.4
2017-11-21T08:58:31.906Z,6.4
2017-11-21T08:59:29.087Z,6.4
2017-11-21T09:00:29.354Z,6.4
2017-11-21T09:01:29.992Z,6.4
2017-11-21T09:02:29.744Z,6.4
2017-11-21T09:03:29.476Z,6.4
2017-11-21T09:04:29.232Z,6.4
2017-11-21T09:05:30.081Z,6.4
2017-11-21T09:06:29.324Z,6.4
2017-11-21T09:07:29.498Z,6.4
2017-11-21T09:08:29.710Z,6.4
2017-11-21T09:09:31.883Z,6.4
2017-11-21T09:10:33.546Z,6.4
2017-11-21T09:11:29.246Z,6.4
2017-11-21T09:12:29.513Z,6.4
2017-11-21T09:13:29.795Z,6.4
2017-11-21T09:14:29.665Z,6.4
2017-11-21T09:15:29.339Z,6.4
2017-11-21T09:16:29.289Z,6.4
2017-11-21T09:17:40.718Z,6.4
2017-11-21T09:18:29.245Z,6.4
2017-11-21T09:19:29.517Z,6.4
2017-11-21T09:20:29.547Z,6.4
2017-11-21T09:21:30.096Z,6.4
2017-11-21T09:22:29.484Z,6.4
2017-11-21T09:23:29.539Z,6.4
2017-11-21T09:24:29.815Z,6.4
2017-11-21T09:25:35.040Z,6.4
2017-11-21T09:26:29.526Z,6.4
2017-11-21T09:27:31.773Z,6.4
2017-11-21T09:28:36.670Z,6.4
2017-11-21T09:30:20.962Z,6.4
2017-11-21T09:30:46.774Z,6.4
2017-11-21T09:31:32.185Z,6.4
2017-11-21T09:32:34.628Z,6.4
2017-11-21T09:33:46.238Z,6.4
2017-11-21T09:34:46.845Z,6.5
2017-11-21T09:35:40.195Z,6.5
2017-11-21T09:36:42.688Z,6.6
2017-11-21T09:37:31.597Z,6.6
2017-11-21T09:38:31.379Z,6.6
2017-11-21T09:39:31.940Z,6.6
2017-11-21T09:40:31.650Z,6.6
2017-11-21T09:41:31.648Z,6.6
2017-11-21T09:42:31.779Z,6.6
2017-11-21T09:43:31.651Z,6.6
2017-11-21T09:44:32.021Z,6.6
2017-11-21T09:45:31.316Z,6.6
2017-11-21T09:46:31.661Z,6.6
2017-11-21T09:47:31.822Z,6.6
2017-11-21T09:48:32.754Z,6.6
2017-11-21T09:49:31.402Z,6.6
2017-11-21T09:50:31.191Z,6.6
2017-11-21T09:51:41.904Z,6.7
2017-11-21T09:52:39.399Z,6.7
2017-11-21T09:53:37.426Z,6.7
2017-11-21T09:54:38.736Z,6.7
2017-11-21T09:55:31.747Z,6.7
2017-11-21T09:56:31.390Z,6.7
2017-11-21T09:57:31.399Z,6.7
2017-11-21T09:58:32.416Z,6.7
2017-11-21T09:59:32.176Z,6.7
2017-11-21T10:00:31.736Z,6.7
2017-11-21T10:01:32.265Z,6.7
2017-11-21T10:02:31.423Z,6.6
2017-11-21T10:03:31.460Z,6.6
2017-11-21T10:04:31.570Z,6.6
2017-11-21T10:05:31.265Z,6.6
2017-11-21T10:06:31.974Z,6.6
2017-11-21T10:07:37.454Z,6.7
2017-11-21T10:08:31.537Z,6.7
2017-11-21T10:09:31.378Z,6.7
2017-11-21T10:10:31.579Z,6.7
2017-11-21T10:11:32.659Z,6.7
2017-11-21T10:12:31.176Z,6.7
2017-11-21T10:13:32.532Z,6.7
2017-11-21T10:14:31.411Z,6.7
2017-11-21T10:15:31.136Z,6.7
2017-11-21T10:16:31.742Z,6.7
2017-11-21T10:17:31.667Z,6.7
2017-11-21T10:18:31.267Z,6.7
2017-11-21T10:19:32.842Z,6.6
2017-11-21T10:20:31.711Z,6.6
2017-11-21T10:21:31.370Z,6.6
2017-11-21T10:22:31.413Z,6.6
2017-11-21T10:23:31.390Z,6.6
2017-11-21T10:24:31.577Z,6.7
2017-11-21T10:25:31.323Z,6.7
2017-11-21T10:26:31.406Z,6.7
2017-11-21T10:27:31.342Z,6.8
2017-11-21T10:28:31.181Z,6.8
2017-11-21T10:29:31.722Z,6.8
2017-11-21T10:30:31.626Z,6.8
2017-11-21T10:31:31.844Z,6.8
2017-11-21T10:32:31.392Z,6.8
2017-11-21T10:33:31.581Z,6.8
2017-11-21T10:34:31.680Z,6.8
2017-11-21T10:35:31.669Z,6.8
2017-11-21T10:36:31.712Z,6.8
2017-11-21T10:37:31.278Z,6.8
2017-11-21T10:38:31.354Z,6.8
2017-11-21T10:39:32.008Z,6.8
2017-11-21T10:40:31.424Z,6.9
2017-11-21T10:41:31.404Z,6.9
2017-11-21T10:42:32.049Z,6.9
2017-11-21T10:43:31.227Z,6.9
2017-11-21T10:44:31.522Z,6.9
2017-11-21T10:45:31.340Z,6.9
2017-11-21T10:46:32.241Z,6.9
2017-11-21T10:47:31.391Z,6.8
2017-11-21T10:48:31.709Z,6.8
2017-11-21T10:49:31.528Z,6.8
2017-11-21T10:50:31.834Z,6.8
2017-11-21T10:51:31.542Z,6.8
2017-11-21T10:52:31.772Z,6.8
2017-11-21T10:53:31.505Z,6.8
2017-11-21T10:54:31.400Z,6.8
2017-11-21T10:55:31.436Z,6.8
2017-11-21T10:56:31.502Z,6.8
2017-11-21T10:57:31.209Z,6.8
2017-11-21T10:58:31.771Z,6.9
2017-11-21T10:59:32.263Z,6.9
2017-11-21T11:00:51.470Z,6.8
2017-11-21T11:01:31.490Z,6.8
2017-11-21T11:02:31.509Z,6.8
2017-11-21T11:03:31.493Z,6.8
2017-11-21T11:04:34.340Z,6.8
2017-11-21T11:05:38.590Z,7.0
2017-11-21T11:06:34.794Z,7.0
2017-11-21T11:07:31.703Z,7.0
2017-11-21T11:08:31.940Z,7.0
2017-11-21T11:09:31.501Z,7.0
2017-11-21T11:10:31.558Z,7.0
2017-11-21T11:11:31.768Z,7.0
2017-11-21T11:12:31.807Z,7.0
2017-11-21T11:13:31.513Z,7.0
2017-11-21T11:14:31.520Z,7.0
2017-11-21T11:15:31.502Z,7.0
2017-11-21T11:16:31.493Z,7.0
2017-11-21T11:17:31.372Z,7.0
2017-11-21T11:18:31.547Z,7.0
2017-11-21T11:19:31.776Z,7.0
2017-11-21T11:20:33.531Z,7.0
2017-11-21T11:21:31.815Z,7.0
2017-11-21T11:22:31.731Z,7.0
2017-11-21T11:23:31.543Z,7.1
2017-11-21T11:24:31.304Z,7.1
2017-11-21T11:25:31.801Z,7.1
2017-11-21T11:26:32.414Z,7.1
2017-11-21T11:27:31.331Z,7.1
2017-11-21T11:28:31.441Z,7.1
2017-11-21T11:29:31.491Z,7.1
2017-11-21T11:30:32.112Z,7.1
2017-11-21T11:31:31.520Z,7.1
2017-11-21T11:32:31.597Z,7.1
2017-11-21T11:33:31.749Z,7.1
2017-11-21T11:34:31.819Z,7.1
2017-11-21T11:35:31.459Z,7.1
2017-11-21T11:36:32.554Z,7.2
2017-11-21T11:37:31.853Z,7.2
2017-11-21T11:38:31.560Z,7.2
2017-11-21T11:39:31.506Z,7.2
2017-11-21T11:40:32.140Z,7.2
2017-11-21T11:41:31.469Z,7.2
2017-11-21T11:42:31.615Z,7.2
2017-11-21T11:43:32.939Z,7.2
2017-11-21T11:44:31.798Z,7.2
2017-11-21T11:45:31.579Z,7.2
2017-11-21T11:46:31.646Z,7.2
2017-11-21T11:47:31.380Z,7.2
2017-11-21T11:48:31.828Z,7.2
2017-11-21T11:49:31.495Z,7.2
2017-11-21T11:50:32.766Z,7.2
2017-11-21T11:51:31.813Z,7.1
2017-11-21T11:52:31.874Z,7.1
2017-11-21T11:53:31.304Z,7.1
2017-11-21T11:54:31.610Z,7.1
2017-11-21T11:55:31.573Z,7.1
2017-11-21T11:56:31.568Z,7.2
2017-11-21T11:57:31.787Z,7.2
2017-11-21T11:58:31.579Z,7.2
2017-11-21T11:59:31.348Z,7.1
2017-11-21T12:00:41.964Z,7.1
2017-11-21T12:01:31.394Z,7.2
2017-11-21T12:02:31.669Z,7.2
2017-11-21T12:03:31.818Z,7.2
2017-11-21T12:04:31.422Z,7.2
2017-11-21T12:05:31.395Z,7.2
2017-11-21T12:06:32.011Z,7.2
2017-11-21T12:07:31.609Z,7.2
2017-11-21T12:08:31.632Z,7.2
2017-11-21T12:09:31.948Z,7.2
2017-11-21T12:10:31.639Z,7.2
2017-11-21T12:11:31.555Z,7.2
2017-11-21T12:12:31.671Z,7.2
2017-11-21T12:13:31.636Z,7.2
2017-11-21T12:14:31.539Z,7.2
2017-11-21T12:15:31.457Z,7.2
2017-11-21T12:16:32.017Z,7.2
2017-11-21T12:17:31.618Z,7.2
2017-11-21T12:18:31.651Z,7.2
2017-11-21T12:19:31.411Z,7.2
2017-11-21T12:20:32.200Z,7.2
2017-11-21T12:21:31.661Z,7.1
2017-11-21T12:22:31.743Z,7.1
2017-11-21T12:23:32.131Z,7.1
2017-11-21T12:24:31.474Z,7.1
2017-11-21T12:25:31.490Z,7.1
2017-11-21T12:26:32.339Z,7.2
2017-11-21T12:27:31.445Z,7.2
2017-11-21T12:28:31.743Z,7.2
2017-11-21T12:29:31.446Z,7.2
2017-11-21T12:30:31.955Z,7.2
2017-11-21T12:31:31.684Z,7.2
2017-11-21T12:32:31.754Z,7.2
2017-11-21T12:33:31.813Z,7.2
2017-11-21T12:34:31.716Z,7.2
2017-11-21T12:35:32.826Z,7.2
2017-11-21T12:36:33.137Z,7.2
2017-11-21T12:37:31.626Z,7.2
2017-11-21T12:38:31.682Z,7.2
2017-11-21T12:39:32.603Z,7.2
2017-11-21T12:40:32.458Z,7.2
2017-11-21T12:41:31.652Z,7.2
2017-11-21T12:42:31.915Z,7.2
2017-11-21T12:43:31.576Z,7.2
2017-11-21T12:44:32.027Z,7.2
2017-11-21T12:45:31.439Z,7.2
2017-11-21T12:46:32.296Z,7.2
2017-11-21T12:47:31.740Z,7.3
2017-11-21T12:48:31.448Z,7.3
2017-11-21T12:49:31.521Z,7.3
2017-11-21T12:50:31.986Z,7.3
2017-11-21T12:51:31.769Z,7.3
2017-11-21T12:52:31.731Z,7.3
2017-11-21T12:53:32.019Z,7.3
2017-11-21T12:54:31.741Z,7.3
2017-11-21T12:55:31.958Z,7.3
2017-11-21T12:56:32.023Z,7.3
2017-11-21T12:57:31.652Z,7.3
2017-11-21T12:58:31.646Z,7.3
2017-11-21T12:59:32.045Z,7.3
2017-11-21T13:00:31.627Z,7.3
2017-11-21T13:01:31.640Z,7.3
2017-11-21T13:02:31.553Z,7.4
2017-11-21T13:03:31.412Z,7.4
2017-11-21T13:04:31.497Z,7.4
2017-11-21T13:05:31.947Z,7.4
2017-11-21T13:06:31.746Z,7.4
2017-11-21T13:07:38.030Z,7.4
2017-11-21T13:08:31.612Z,7.4
2017-11-21T13:09:32.145Z,7.4
2017-11-21T13:10:32.194Z,7.4
2017-11-21T13:11:33.662Z,7.4
2017-11-21T13:12:31.516Z,7.4
2017-11-21T13:13:32.665Z,7.4
2017-11-21T13:14:31.933Z,7.4
2017-11-21T13:15:32.287Z,7.4
2017-11-21T13:16:48.042Z,7.4
2017-11-21T13:17:32.229Z,7.4
2017-11-21T13:18:31.886Z,7.4
2017-11-21T13:19:31.722Z,7.4
2017-11-21T13:20:31.660Z,7.4
2017-11-21T13:21:31.643Z,7.4
2017-11-21T13:22:31.454Z,7.4
2017-11-21T13:23:31.685Z,7.4
2017-11-21T13:24:31.664Z,7.4
2017-11-21T13:25:31.639Z,7.4
2017-11-21T13:26:31.728Z,7.4
2017-11-21T13:27:31.677Z,7.5
2017-11-21T13:28:31.669Z,7.5
2017-11-21T13:29:31.477Z,7.5
2017-11-21T13:30:31.455Z,7.4
2017-11-21T13:31:31.978Z,7.4
2017-11-21T13:32:33.120Z,7.4
2017-11-21T13:33:31.744Z,7.5
2017-11-21T13:34:31.977Z,7.5
2017-11-21T13:35:31.697Z,7.4
2017-11-21T13:36:32.092Z,7.4
2017-11-21T13:37:31.981Z,7.4
2017-11-21T13:38:31.809Z,7.4
2017-11-21T13:39:32.131Z,7.4
2017-11-21T13:40:32.225Z,7.4
2017-11-21T13:41:31.760Z,7.4
2017-11-21T13:42:31.550Z,7.4
2017-11-21T13:43:31.664Z,7.4
2017-11-21T13:44:31.564Z,7.4
2017-11-21T13:45:31.683Z,7.4
2017-11-21T13:46:32.069Z,7.4
2017-11-21T13:47:33.176Z,7.4
2017-11-21T13:48:33.207Z,7.4
2017-11-21T13:49:32.160Z,7.4
2017-11-21T13:50:32.032Z,7.4
2017-11-21T13:51:31.842Z,7.4